createdAt,value
2022-10-28T00:01:16.643Z,10.50
2022-10-28T00:03:45.745Z,9.75
2022-10-28T00:06:20.631Z,2.00
2022-10-28T00:08:47.858Z,10.25
2022-10-28T00:11:34.286Z,9.75
2022-10-28T00:14:04.513Z,9.50
2022-10-28T00:16:33.686Z,11.25
2022-10-28T00:19:01.135Z,9.00
2022-10-28T00:21:29.711Z,9.50
2022-10-28T00:23:56.774Z,10.75
2022-10-28T00:26:25.549Z,8.50
2022-10-28T00:28:58.136Z,10.00
2022-10-28T00:31:26.510Z,9.00
2022-10-28T00:33:53.673Z,7.75
2022-10-28T00:36:24.461Z,9.25
2022-10-28T00:38:52.431Z,10.00
2022-10-28T00:41:25.027Z,10.00
2022-10-28T00:43:54.382Z,9.00
2022-10-28T00:46:25.800Z,10.50
2022-10-28T00:49:01.932Z,10.00
2022-10-28T00:51:29.316Z,10.25
2022-10-28T00:53:56.518Z,10.75
2022-10-28T00:56:27.296Z,10.00
2022-10-28T00:58:56.325Z,9.00
2022-10-28T01:01:23.499Z,8.00
2022-10-28T01:03:50.549Z,8.00
2022-10-28T01:06:39.915Z,9.50
2022-10-28T01:09:22.028Z,10.00
2022-10-28T01:12:04.770Z,10.25
2022-10-28T01:15:02.447Z,10.00
2022-10-28T01:18:04.313Z,9.67
2022-10-28T01:20:52.923Z,8.00
2022-10-28T01:23:42.260Z,11.00
2022-10-28T01:26:33.848Z,10.25
2022-10-28T01:29:03.528Z,10.25
2022-10-28T01:31:39.472Z,9.75
2022-10-28T01:34:11.653Z,9.00
2022-10-28T01:36:49.394Z,8.00
2022-10-28T01:39:22.348Z,8.75
2022-10-28T01:42:07.609Z,9.50
2022-10-28T01:44:40.449Z,9.00
2022-10-28T01:47:20.152Z,9.00
2022-10-28T01:49:55.969Z,9.50
2022-10-28T01:52:25.167Z,9.25
2022-10-28T01:54:55.144Z,9.00
2022-10-28T01:57:22.119Z,8.75
2022-10-28T01:59:49.031Z,9.75
2022-10-28T02:02:16.411Z,9.00
2022-10-28T02:04:43.339Z,8.75
2022-10-28T02:07:10.290Z,8.75
2022-10-28T02:09:51.997Z,8.25
2022-10-28T02:12:35.521Z,10.00
2022-10-28T02:15:33.498Z,9.00
2022-10-28T02:18:14.104Z,9.00
2022-10-28T02:21:00.130Z,9.75
2022-10-28T02:23:57.158Z,9.00
2022-10-28T02:26:42.310Z,6.00
2022-10-28T02:29:26.049Z,8.67
2022-10-28T02:31:55.977Z,9.00
2022-10-28T02:34:26.667Z,9.00
2022-10-28T02:36:54.910Z,8.25
2022-10-28T02:39:25.171Z,7.75
2022-10-28T02:41:52.020Z,8.50
2022-10-28T02:44:30.918Z,8.00
2022-10-28T02:46:59.666Z,9.50
2022-10-28T02:49:26.641Z,7.25
2022-10-28T02:52:00.806Z,9.00
2022-10-28T02:54:32.638Z,8.00
2022-10-28T02:57:29.833Z,9.00
2022-10-28T02:59:58.933Z,8.00
2022-10-28T03:02:26.121Z,8.00
2022-10-28T03:04:53.209Z,9.00
2022-10-28T03:07:20.398Z,7.25
2022-10-28T03:09:47.360Z,9.75
2022-10-28T03:12:14.459Z,8.25
2022-10-28T03:14:42.638Z,8.50
2022-10-28T03:17:09.559Z,7.25
2022-10-28T03:19:36.508Z,8.75
2022-10-28T03:22:03.570Z,4.00
2022-10-28T03:24:30.517Z,7.00
2022-10-28T03:26:57.416Z,8.00
2022-10-28T03:29:24.443Z,8.00
2022-10-28T03:31:51.340Z,9.00
2022-10-28T03:34:18.356Z,9.00
2022-10-28T03:36:45.245Z,7.50
2022-10-28T03:39:12.167Z,7.00
2022-10-28T03:41:39.083Z,3.00
2022-10-28T03:44:06.688Z,7.50
2022-10-28T03:46:35.981Z,5.75
2022-10-28T03:49:03.551Z,6.75
2022-10-28T03:51:30.510Z,8.00
2022-10-28T03:53:57.504Z,7.00
2022-10-28T03:56:24.405Z,8.50
2022-10-28T04:01:23.290Z,8.00
2022-10-28T04:03:50.313Z,6.25
2022-10-28T04:06:17.323Z,8.00
2022-10-28T04:08:44.306Z,8.00
2022-10-28T04:11:11.238Z,9.00
2022-10-28T04:13:38.234Z,6.00
2022-10-28T04:16:05.666Z,7.00
2022-10-28T04:18:32.585Z,7.00
2022-10-28T04:20:59.529Z,8.50
2022-10-28T04:23:26.468Z,7.00
2022-10-28T04:25:56.435Z,9.00
2022-10-28T04:28:26.275Z,7.25
2022-10-28T04:30:53.168Z,7.00
2022-10-28T04:33:20.097Z,3.75
2022-10-28T04:35:47.055Z,7.75
2022-10-28T04:38:14.614Z,7.75
2022-10-28T04:40:41.680Z,6.25
2022-10-28T04:43:10.159Z,7.00
2022-10-28T04:45:37.870Z,8.00
2022-10-28T04:48:05.143Z,7.00
2022-10-28T04:50:32.090Z,6.25
2022-10-28T04:52:58.999Z,6.00
2022-10-28T04:55:25.915Z,7.00
2022-10-28T04:57:59.829Z,7.00
2022-10-28T05:00:27.625Z,7.75
2022-10-28T05:02:55.000Z,6.25
2022-10-28T05:05:22.143Z,6.75
2022-10-28T05:07:49.104Z,7.25
2022-10-28T05:10:18.381Z,7.00
2022-10-28T05:12:45.926Z,6.00
2022-10-28T05:15:13.216Z,7.00
2022-10-28T05:17:41.249Z,6.50
2022-10-28T05:20:08.953Z,8.00
2022-10-28T05:22:35.931Z,8.00
2022-10-28T05:25:02.873Z,7.00
2022-10-28T05:27:29.817Z,5.25
2022-10-28T05:29:56.750Z,6.00
2022-10-28T05:32:23.723Z,6.00
2022-10-28T05:34:50.650Z,5.50
2022-10-28T05:37:17.592Z,6.50
2022-10-28T05:39:44.561Z,6.25
2022-10-28T05:42:11.498Z,7.00
2022-10-28T05:44:38.703Z,8.75
2022-10-28T05:47:05.901Z,7.00
2022-10-28T05:49:32.848Z,8.75
2022-10-28T05:51:59.955Z,7.00
2022-10-28T05:54:27.055Z,7.00
2022-10-28T05:56:54.019Z,7.00
2022-10-28T05:59:20.997Z,6.00
2022-10-28T06:01:48.004Z,8.00
2022-10-28T06:04:15.085Z,7.25
2022-10-28T06:06:42.091Z,5.00
2022-10-28T06:09:09.112Z,7.00
2022-10-28T06:11:34.466Z,6.00
2022-10-28T06:14:01.475Z,8.00
2022-10-28T06:16:28.408Z,8.00
2022-10-28T06:18:55.447Z,8.00
2022-10-28T06:21:22.360Z,8.00
2022-10-28T06:23:50.164Z,8.50
2022-10-28T06:26:17.058Z,9.00
2022-10-28T06:28:46.426Z,8.00
2022-10-28T06:31:13.392Z,8.00
2022-10-28T06:33:40.314Z,7.25
2022-10-28T06:36:07.591Z,6.25
2022-10-28T06:38:34.534Z,6.50
2022-10-28T06:41:01.444Z,6.50
2022-10-28T06:43:28.422Z,6.50
2022-10-28T06:45:56.103Z,6.50
2022-10-28T06:48:24.934Z,8.50
2022-10-28T06:50:51.896Z,6.00
2022-10-28T06:53:19.021Z,6.75
2022-10-28T06:55:52.953Z,5.25
2022-10-28T06:58:19.907Z,5.00
2022-10-28T07:00:46.798Z,6.00
2022-10-28T07:03:13.775Z,7.00
2022-10-28T07:05:40.658Z,6.00
2022-10-28T07:08:07.717Z,6.00
2022-10-28T07:10:34.628Z,8.25
2022-10-28T07:13:01.576Z,6.00
2022-10-28T07:15:28.511Z,6.00
2022-10-28T07:17:56.176Z,6.00
2022-10-28T07:20:23.569Z,6.00
2022-10-28T07:23:00.149Z,7.00
2022-10-28T07:25:27.887Z,7.00
2022-10-28T07:27:55.123Z,6.00
2022-10-28T07:30:22.248Z,6.25
2022-10-28T07:32:49.261Z,6.25
2022-10-28T07:35:16.300Z,7.00
2022-10-28T07:37:43.315Z,7.75
2022-10-28T07:40:10.575Z,8.00
2022-10-28T07:42:37.509Z,8.75
2022-10-28T07:45:04.957Z,9.25
2022-10-28T07:47:32.005Z,9.25
2022-10-28T07:49:58.985Z,10.25
2022-10-28T07:52:25.955Z,11.50
2022-10-28T07:54:52.884Z,11.25
2022-10-28T07:57:19.808Z,11.75
2022-10-28T07:59:46.710Z,11.50
2022-10-28T08:02:18.127Z,9.75
2022-10-28T08:04:45.050Z,8.00
2022-10-28T08:07:12.699Z,8.00
2022-10-28T08:09:40.037Z,8.50
2022-10-28T08:12:07.827Z,9.25
2022-10-28T08:14:34.898Z,9.25
2022-10-28T08:17:01.906Z,8.00
2022-10-28T08:19:28.792Z,8.25
2022-10-28T08:21:55.766Z,9.75
2022-10-28T08:24:22.778Z,11.50
2022-10-28T08:26:49.827Z,8.00
2022-10-28T08:29:16.832Z,10.75
2022-10-28T08:31:43.745Z,8.75
2022-10-28T08:34:10.759Z,9.25
2022-10-28T08:36:37.745Z,11.00
2022-10-28T08:39:04.813Z,10.00
2022-10-28T08:41:48.079Z,10.25
2022-10-28T08:44:14.940Z,11.00
2022-10-28T08:46:44.488Z,7.00
2022-10-28T08:49:14.326Z,9.50
2022-10-28T08:51:55.702Z,9.00
2022-10-28T08:54:35.060Z,8.50
2022-10-28T08:57:02.917Z,8.25
2022-10-28T08:59:34.555Z,8.25
2022-10-28T09:02:03.971Z,7.00
2022-10-28T09:04:39.709Z,6.25
2022-10-28T09:07:08.908Z,10.00
2022-10-28T09:09:35.824Z,9.25
2022-10-28T09:12:40.219Z,6.50
2022-10-28T09:15:09.974Z,6.75
2022-10-28T09:17:56.262Z,5.00
2022-10-28T09:20:48.011Z,7.00
2022-10-28T09:23:17.945Z,6.50
2022-10-28T09:26:20.387Z,7.00
2022-10-28T09:29:26.628Z,8.75
2022-10-28T09:31:56.470Z,10.00
2022-10-28T09:34:49.015Z,13.00
2022-10-28T09:37:15.876Z,11.75
2022-10-28T09:39:47.634Z,12.75
2022-10-28T09:42:18.674Z,13.75
2022-10-28T09:44:51.395Z,11.75
2022-10-28T09:47:21.837Z,14.00
2022-10-28T09:49:48.822Z,11.50
2022-10-28T09:52:24.040Z,12.00
2022-10-28T09:54:52.632Z,12.50
2022-10-28T09:57:20.139Z,12.00
2022-10-28T09:59:47.622Z,13.25
2022-10-28T10:02:40.585Z,14.00
2022-10-28T10:05:16.868Z,12.50
2022-10-28T10:07:53.616Z,11.25
2022-10-28T10:10:52.390Z,13.00
2022-10-28T10:13:24.306Z,12.25
2022-10-28T10:16:00.186Z,12.50
2022-10-28T10:18:33.202Z,13.00
2022-10-28T10:21:01.201Z,12.50
2022-10-28T10:23:35.371Z,12.50
2022-10-28T10:26:09.564Z,12.25
2022-10-28T10:28:48.644Z,12.00
2022-10-28T10:31:21.473Z,13.00
2022-10-28T10:33:57.666Z,13.00
2022-10-28T10:36:31.691Z,13.00
2022-10-28T10:39:01.218Z,12.00
2022-10-28T10:41:39.295Z,12.00
2022-10-28T10:44:21.575Z,9.50
2022-10-28T10:47:08.396Z,11.25
2022-10-28T10:49:36.549Z,13.00
2022-10-28T10:52:24.508Z,13.75
2022-10-28T10:55:33.057Z,12.50
2022-10-28T10:58:01.993Z,12.00
2022-10-28T11:00:39.094Z,12.50
2022-10-28T11:03:16.589Z,11.50
2022-10-28T11:06:18.432Z,12.75
2022-10-28T11:08:44.485Z,12.00
2022-10-28T11:11:20.659Z,13.50
2022-10-28T11:13:49.717Z,13.50
2022-10-28T11:16:24.999Z,13.00
2022-10-28T11:18:53.447Z,12.25
2022-10-28T11:21:44.225Z,11.25
2022-10-28T11:24:25.937Z,10.00
2022-10-28T11:27:13.500Z,11.50
2022-10-28T11:29:41.507Z,8.00
2022-10-28T11:32:54.457Z,12.00
2022-10-28T11:35:46.465Z,9.00
2022-10-28T11:38:53.422Z,11.00
2022-10-28T11:41:32.169Z,11.50
2022-10-28T11:44:04.919Z,11.00
2022-10-28T11:47:05.127Z,8.67
2022-10-28T11:49:44.111Z,11.00
2022-10-28T11:52:44.996Z,10.00
2022-10-28T11:55:48.470Z,11.00
2022-10-28T11:58:31.550Z,10.00
2022-10-28T12:01:11.801Z,5.25
2022-10-28T12:03:53.872Z,8.33
2022-10-28T12:06:51.208Z,9.33
2022-10-28T12:09:46.753Z,9.50
2022-10-28T12:12:38.452Z,9.25
2022-10-28T12:15:39.122Z,8.00
2022-10-28T12:18:16.246Z,8.33
2022-10-28T12:20:51.717Z,9.00
2022-10-28T12:23:22.858Z,9.00
2022-10-28T12:25:55.430Z,9.25
2022-10-28T12:28:28.496Z,8.00
2022-10-28T12:30:58.596Z,8.00
2022-10-28T12:33:40.040Z,8.33
2022-10-28T12:36:13.149Z,9.00
2022-10-28T12:38:57.242Z,7.33
2022-10-28T12:41:43.812Z,7.00
2022-10-28T12:44:16.534Z,8.67
2022-10-28T12:47:13.233Z,7.00
2022-10-28T12:50:04.518Z,7.33
2022-10-28T12:52:56.722Z,7.33
2022-10-28T12:55:33.086Z,7.00
2022-10-28T12:58:06.513Z,8.00
2022-10-28T13:00:40.721Z,7.00
2022-10-28T13:03:13.244Z,8.33
2022-10-28T13:05:40.101Z,6.00
2022-10-28T13:08:32.369Z,7.33
2022-10-28T13:11:43.572Z,9.00
2022-10-28T13:14:44.208Z,8.67
2022-10-28T13:17:48.332Z,7.33
2022-10-28T13:20:31.197Z,8.00
2022-10-28T13:23:24.170Z,6.33
2022-10-28T13:25:58.052Z,8.00
2022-10-28T13:28:33.216Z,9.00
2022-10-28T13:31:03.694Z,6.00
2022-10-28T13:33:33.893Z,7.67
2022-10-28T13:36:31.557Z,6.00
2022-10-28T13:39:03.595Z,4.67
2022-10-28T13:41:41.008Z,6.67
2022-10-28T13:44:10.310Z,5.33
2022-10-28T13:46:59.005Z,5.00
2022-10-28T13:49:33.593Z,6.67
2022-10-28T13:52:04.022Z,6.67
2022-10-28T13:54:33.863Z,5.00
2022-10-28T13:57:09.082Z,6.00
2022-10-28T13:59:51.146Z,6.00
2022-10-28T14:02:37.492Z,5.33
2022-10-28T14:05:10.181Z,4.00
2022-10-28T14:07:50.857Z,7.00
2022-10-28T14:10:33.107Z,5.00
2022-10-28T14:13:04.704Z,6.00
2022-10-28T14:15:35.898Z,4.67
2022-10-28T14:18:42.166Z,7.00
2022-10-28T14:21:08.919Z,7.00
2022-10-28T14:23:36.685Z,7.67
2022-10-28T14:26:05.823Z,7.00
2022-10-28T14:28:32.697Z,7.67
2022-10-28T14:31:08.609Z,8.00
2022-10-28T14:33:36.600Z,8.00
2022-10-28T14:36:21.471Z,10.33
2022-10-28T14:39:03.631Z,6.67
2022-10-28T14:42:02.404Z,8.25
2022-10-28T14:44:50.268Z,7.33
2022-10-28T14:47:35.825Z,7.00
2022-10-28T14:50:38.785Z,7.00
2022-10-28T14:53:29.759Z,7.00
2022-10-28T14:57:41.605Z,7.00
2022-10-28T16:06:58.059Z,8.33
2022-10-28T16:09:35.123Z,8.00
2022-10-28T16:12:17.696Z,8.33
2022-10-28T16:14:48.908Z,9.00
2022-10-28T16:17:23.999Z,10.67
2022-10-28T16:20:03.824Z,10.00
2022-10-28T16:22:34.635Z,10.33
2022-10-28T16:25:01.516Z,9.67
2022-10-28T16:27:31.722Z,9.00
2022-10-28T16:29:58.751Z,10.00
2022-10-28T16:32:29.542Z,10.67
2022-10-28T16:35:00.637Z,11.67
2022-10-28T16:37:30.395Z,11.67
2022-10-28T16:40:00.374Z,13.00
2022-10-28T16:42:27.472Z,12.00
2022-10-28T16:44:54.389Z,12.33
2022-10-28T16:47:24.430Z,12.50
2022-10-28T16:49:54.485Z,11.00
2022-10-28T16:52:30.350Z,11.33
2022-10-28T16:54:57.761Z,12.00
2022-10-28T16:57:26.493Z,12.00
2022-10-28T16:59:54.145Z,12.00
2022-10-28T17:02:35.008Z,9.67
2022-10-28T17:05:05.232Z,12.00
2022-10-28T17:07:32.376Z,12.67
2022-10-28T17:09:59.236Z,12.50
2022-10-28T17:12:27.740Z,12.00
2022-10-28T17:14:54.638Z,13.00
2022-10-28T17:17:21.601Z,11.00
2022-10-28T17:19:48.678Z,13.00
2022-10-28T17:22:15.876Z,12.00
2022-10-28T17:24:43.093Z,13.00
2022-10-28T17:27:10.042Z,11.00
2022-10-28T17:29:37.090Z,12.00
2022-10-28T17:32:04.174Z,9.25
2022-10-28T17:34:31.096Z,11.00
2022-10-28T17:36:58.370Z,11.00
2022-10-28T17:39:26.561Z,9.67
2022-10-28T17:41:55.181Z,9.33
2022-10-28T17:44:22.513Z,8.00
2022-10-28T17:46:49.470Z,10.00
2022-10-28T17:49:16.351Z,9.00
2022-10-28T17:51:43.434Z,10.00
2022-10-28T17:54:10.858Z,9.33
2022-10-28T17:56:39.469Z,8.67
2022-10-28T17:59:06.451Z,10.00
2022-10-28T18:01:36.162Z,7.67
2022-10-28T18:04:04.727Z,9.00
2022-10-28T18:06:32.409Z,11.00
2022-10-28T18:08:59.298Z,11.00
2022-10-28T18:11:27.734Z,9.67
2022-10-28T18:13:56.499Z,9.67
2022-10-28T18:16:28.087Z,8.00
2022-10-28T18:18:56.075Z,10.00
2022-10-28T18:21:24.800Z,10.67
2022-10-28T18:23:53.177Z,10.00
2022-10-28T18:26:21.104Z,11.67
2022-10-28T18:28:49.215Z,8.00
2022-10-28T18:31:20.222Z,8.00
2022-10-28T18:33:47.609Z,8.67
2022-10-28T18:36:17.276Z,8.33
2022-10-28T18:38:44.417Z,10.00
2022-10-28T18:41:19.829Z,9.33
2022-10-28T18:43:47.486Z,9.00
2022-10-28T18:46:14.712Z,9.67
2022-10-28T18:48:41.720Z,9.00
2022-10-28T18:51:11.770Z,8.67
2022-10-28T18:53:44.399Z,8.67
2022-10-28T18:56:14.386Z,8.00
2022-10-28T18:58:41.915Z,9.00
2022-10-28T19:01:16.990Z,8.67
2022-10-28T19:03:44.540Z,9.67
2022-10-28T19:06:14.276Z,8.00
2022-10-28T19:08:41.717Z,8.67
2022-10-28T19:11:11.718Z,8.00
2022-10-28T19:13:40.904Z,7.00
2022-10-28T19:16:08.759Z,6.33
2022-10-28T19:18:38.477Z,5.33
2022-10-28T19:21:12.976Z,6.00
2022-10-28T19:23:40.769Z,6.67
2022-10-28T19:26:08.899Z,5.00
2022-10-28T19:28:41.327Z,5.00
2022-10-28T19:31:13.439Z,6.00
2022-10-28T19:33:41.034Z,6.33
2022-10-28T19:36:14.527Z,7.00
2022-10-28T19:38:42.093Z,5.00
2022-10-28T19:41:17.044Z,5.00
2022-10-28T19:43:44.045Z,4.00
2022-10-28T19:46:13.320Z,5.33
2022-10-28T19:48:42.625Z,4.00
2022-10-28T19:51:13.983Z,5.00
2022-10-28T19:53:41.680Z,4.00
2022-10-28T19:56:08.645Z,4.00
2022-10-28T19:58:35.615Z,5.67
2022-10-28T20:01:05.884Z,5.33
2022-10-28T20:03:35.140Z,4.00
2022-10-28T20:06:11.595Z,6.00
2022-10-28T20:08:43.214Z,6.00
2022-10-28T20:11:13.806Z,7.00
2022-10-28T20:13:41.370Z,8.67
2022-10-28T20:16:13.882Z,7.67
2022-10-28T20:18:41.766Z,6.00
2022-10-28T20:21:16.457Z,7.67
2022-10-28T20:23:44.977Z,7.67
2022-10-28T20:26:13.516Z,7.67
2022-10-28T20:28:40.949Z,8.00
2022-10-28T20:31:10.641Z,6.00
2022-10-28T20:33:40.242Z,5.00
2022-10-28T20:36:21.809Z,8.00
2022-10-28T20:38:53.037Z,7.67
2022-10-28T20:41:20.069Z,8.33
2022-10-28T20:43:51.908Z,7.33
2022-10-28T20:46:20.320Z,8.00
2022-10-28T20:48:48.039Z,6.67
2022-10-28T20:51:15.164Z,7.33
2022-10-28T20:53:42.484Z,6.67
2022-10-28T20:56:17.022Z,9.00
2022-10-28T20:58:44.220Z,1.33
2022-10-28T21:01:16.868Z,7.67
2022-10-28T21:03:44.761Z,7.00
2022-10-28T21:08:41.698Z,5.67
2022-10-28T21:11:15.093Z,6.33
2022-10-28T21:13:44.691Z,6.00
2022-10-28T21:16:14.491Z,6.00
2022-10-28T21:18:41.513Z,8.00
2022-10-28T21:21:08.504Z,6.33
2022-10-28T21:23:35.407Z,7.33
2022-10-28T21:26:04.955Z,6.33
2022-10-28T21:28:33.321Z,6.33
2022-10-28T21:31:09.479Z,6.00
2022-10-28T21:33:37.743Z,7.00
2022-10-28T21:36:08.037Z,5.67
2022-10-28T21:38:35.807Z,7.00
2022-10-28T21:41:10.093Z,7.00
2022-10-28T21:43:39.651Z,7.00
2022-10-28T21:46:07.358Z,7.33
2022-10-28T21:48:35.870Z,7.00
2022-10-28T21:51:08.573Z,6.67
2022-10-28T21:53:39.376Z,6.33
2022-10-28T21:56:13.792Z,5.00
2022-10-28T21:58:43.391Z,6.00
2022-10-28T22:01:16.173Z,4.67
2022-10-28T22:03:43.422Z,5.00
2022-10-28T22:06:10.662Z,7.00
2022-10-28T22:08:37.529Z,6.00
2022-10-28T22:11:04.469Z,6.33
2022-10-28T22:13:31.715Z,4.00
2022-10-28T22:16:00.568Z,5.67
2022-10-28T22:18:29.178Z,6.00
2022-10-28T22:20:56.766Z,4.00
2022-10-28T22:23:23.709Z,4.67
2022-10-28T22:25:50.611Z,5.67
2022-10-28T22:28:17.490Z,5.33
2022-10-28T22:30:44.344Z,6.00
2022-10-28T22:33:11.204Z,6.00
2022-10-28T22:35:38.155Z,6.00
2022-10-28T22:38:04.983Z,7.00
2022-10-28T22:40:31.888Z,5.00
2022-10-28T22:42:58.721Z,3.00
2022-10-28T22:45:25.611Z,3.00
2022-10-28T22:47:52.800Z,3.67
2022-10-28T22:50:19.982Z,3.67
2022-10-28T22:52:46.933Z,6.00
2022-10-28T22:55:13.812Z,4.33
2022-10-28T22:57:40.671Z,4.00
2022-10-28T23:00:08.356Z,3.67
2022-10-28T23:02:35.358Z,6.00
2022-10-28T23:05:02.351Z,4.00
2022-10-28T23:07:29.322Z,4.67
2022-10-28T23:09:58.516Z,5.33
2022-10-28T23:12:25.375Z,4.00
2022-10-28T23:14:52.248Z,3.00
2022-10-28T23:17:19.077Z,4.33
2022-10-28T23:19:45.955Z,4.00
2022-10-28T23:22:12.828Z,3.33
2022-10-28T23:24:40.181Z,4.00
2022-10-28T23:27:07.076Z,3.33
2022-10-28T23:29:33.965Z,5.33
2022-10-28T23:32:00.797Z,3.67
2022-10-28T23:34:28.480Z,4.00
2022-10-28T23:36:55.319Z,4.33
2022-10-28T23:39:22.377Z,4.00
2022-10-28T23:41:49.313Z,2.67
2022-10-28T23:44:16.318Z,3.00
2022-10-28T23:46:43.237Z,3.00
2022-10-28T23:49:10.167Z,4.00
2022-10-28T23:51:37.049Z,4.00
2022-10-28T23:54:04.292Z,3.00
2022-10-28T23:56:31.349Z,4.00
2022-10-28T23:58:58.296Z,4.00
